sensor_id;sensor_type;location;lat;lon;timestamp;temperature;humidity
13686;DHT22;6915;48.296;8.874;2023-06-04T00:00:31;13.80;99.90
13686;DHT22;6915;48.296;8.874;2023-06-04T00:03:01;13.80;99.90
13686;DHT22;6915;48.296;8.874;2023-06-04T00:05:30;13.60;99.90
13686;DHT22;6915;48.296;8.874;2023-06-04T00:07:56;13.70;99.90
13686;DHT22;6915;48.296;8.874;2023-06-04T00:10:25;13.80;99.90
13686;DHT22;6915;48.296;8.874;2023-06-04T00:12:54;13.80;99.90
13686;DHT22;6915;48.296;8.874;2023-06-04T00:15:22;13.70;99.90
13686;DHT22;6915;48.296;8.874;2023-06-04T00:17:51;13.70;99.90
13686;DHT22;6915;48.296;8.874;2023-06-04T00:20:22;13.60;99.90
13686;DHT22;6915;48.296;8.874;2023-06-04T00:22:50;13.50;99.90
13686;DHT22;6915;48.296;8.874;2023-06-04T00:25:19;13.50;99.90
13686;DHT22;6915;48.296;8.874;2023-06-04T00:27:48;13.40;99.90
13686;DHT22;6915;48.296;8.874;2023-06-04T00:30:16;13.50;99.90
13686;DHT22;6915;48.296;8.874;2023-06-04T00:32:45;13.40;99.90
13686;DHT22;6915;48.296;8.874;2023-06-04T00:35:15;13.30;99.90
13686;DHT22;6915;48.296;8.874;2023-06-04T00:37:45;13.20;99.90
13686;DHT22;6915;48.296;8.874;2023-06-04T00:40:14;13.20;99.90
13686;DHT22;6915;48.296;8.874;2023-06-04T00:42:43;13.00;99.90
13686;DHT22;6915;48.296;8.874;2023-06-04T00:45:12;12.90;99.90
13686;DHT22;6915;48.296;8.874;2023-06-04T00:47:43;12.90;99.90
13686;DHT22;6915;48.296;8.874;2023-06-04T00:50:12;12.70;99.90
13686;DHT22;6915;48.296;8.874;2023-06-04T00:52:41;12.60;99.90
13686;DHT22;6915;48.296;8.874;2023-06-04T00:55:12;12.60;99.90
13686;DHT22;6915;48.296;8.874;2023-06-04T00:57:41;12.70;99.90
13686;DHT22;6915;48.296;8.874;2023-06-04T01:00:09;12.70;99.90
13686;DHT22;6915;48.296;8.874;2023-06-04T01:02:40;12.70;99.90
13686;DHT22;6915;48.296;8.874;2023-06-04T01:05:14;12.70;99.90
13686;DHT22;6915;48.296;8.874;2023-06-04T01:07:46;12.70;99.90
13686;DHT22;6915;48.296;8.874;2023-06-04T01:10:17;12.50;99.90
13686;DHT22;6915;48.296;8.874;2023-06-04T01:12:46;12.40;99.90
13686;DHT22;6915;48.296;8.874;2023-06-04T01:15:14;12.30;99.90
13686;DHT22;6915;48.296;8.874;2023-06-04T01:17:44;12.40;99.90
13686;DHT22;6915;48.296;8.874;2023-06-04T01:20:34;12.30;99.90
13686;DHT22;6915;48.296;8.874;2023-06-04T01:23:25;12.30;99.90
13686;DHT22;6915;48.296;8.874;2023-06-04T01:25:57;12.30;99.90
13686;DHT22;6915;48.296;8.874;2023-06-04T01:28:27;12.30;99.90
13686;DHT22;6915;48.296;8.874;2023-06-04T01:30:57;12.40;99.90
13686;DHT22;6915;48.296;8.874;2023-06-04T01:33:27;12.40;99.90
13686;DHT22;6915;48.296;8.874;2023-06-04T01:35:56;12.20;99.90
13686;DHT22;6915;48.296;8.874;2023-06-04T01:38:25;12.10;99.90
13686;DHT22;6915;48.296;8.874;2023-06-04T01:40:54;12.00;99.90
13686;DHT22;6915;48.296;8.874;2023-06-04T01:43:29;11.90;99.90
13686;DHT22;6915;48.296;8.874;2023-06-04T01:46:02;11.90;99.90
13686;DHT22;6915;48.296;8.874;2023-06-04T01:48:31;11.90;99.90
13686;DHT22;6915;48.296;8.874;2023-06-04T01:51:00;11.80;99.90
13686;DHT22;6915;48.296;8.874;2023-06-04T01:53:29;11.70;99.90
13686;DHT22;6915;48.296;8.874;2023-06-04T01:55:58;11.70;99.90
13686;DHT22;6915;48.296;8.874;2023-06-04T01:58:26;11.60;99.90
13686;DHT22;6915;48.296;8.874;2023-06-04T02:00:56;11.50;99.90
13686;DHT22;6915;48.296;8.874;2023-06-04T02:03:27;11.40;99.90
13686;DHT22;6915;48.296;8.874;2023-06-04T02:05:59;11.40;99.90
13686;DHT22;6915;48.296;8.874;2023-06-04T02:08:28;11.50;99.90
13686;DHT22;6915;48.296;8.874;2023-06-04T02:10:57;11.50;99.90
13686;DHT22;6915;48.296;8.874;2023-06-04T02:13:26;11.50;99.90
13686;DHT22;6915;48.296;8.874;2023-06-04T02:15:56;11.50;99.90
13686;DHT22;6915;48.296;8.874;2023-06-04T02:18:25;11.40;99.90
13686;DHT22;6915;48.296;8.874;2023-06-04T02:20:54;11.40;99.90
13686;DHT22;6915;48.296;8.874;2023-06-04T02:23:23;11.20;99.90
13686;DHT22;6915;48.296;8.874;2023-06-04T02:25:51;11.20;99.90
13686;DHT22;6915;48.296;8.874;2023-06-04T02:28:20;11.20;99.90
13686;DHT22;6915;48.296;8.874;2023-06-04T02:30:49;11.20;99.90
13686;DHT22;6915;48.296;8.874;2023-06-04T02:33:19;11.10;99.90
13686;DHT22;6915;48.296;8.874;2023-06-04T02:35:51;11.10;99.90
13686;DHT22;6915;48.296;8.874;2023-06-04T02:38:20;10.80;99.90
13686;DHT22;6915;48.296;8.874;2023-06-04T02:40:49;10.90;99.90
13686;DHT22;6915;48.296;8.874;2023-06-04T02:43:17;10.80;99.90
13686;DHT22;6915;48.296;8.874;2023-06-04T02:45:46;10.70;99.90
13686;DHT22;6915;48.296;8.874;2023-06-04T02:48:15;10.70;99.90
13686;DHT22;6915;48.296;8.874;2023-06-04T02:50:45;10.60;99.90
13686;DHT22;6915;48.296;8.874;2023-06-04T02:53:13;10.60;99.90
13686;DHT22;6915;48.296;8.874;2023-06-04T02:55:42;10.70;99.90
13686;DHT22;6915;48.296;8.874;2023-06-04T02:58:11;10.60;99.90
13686;DHT22;6915;48.296;8.874;2023-06-04T03:00:41;10.70;99.90
13686;DHT22;6915;48.296;8.874;2023-06-04T03:03:12;10.50;99.90
13686;DHT22;6915;48.296;8.874;2023-06-04T03:05:40;10.40;99.90
13686;DHT22;6915;48.296;8.874;2023-06-04T03:08:11;10.40;99.90
13686;DHT22;6915;48.296;8.874;2023-06-04T03:10:40;10.30;99.90
13686;DHT22;6915;48.296;8.874;2023-06-04T03:13:08;10.30;99.90
13686;DHT22;6915;48.296;8.874;2023-06-04T03:15:37;10.30;99.90
13686;DHT22;6915;48.296;8.874;2023-06-04T03:18:06;10.30;99.90
13686;DHT22;6915;48.296;8.874;2023-06-04T03:20:35;10.30;99.90
13686;DHT22;6915;48.296;8.874;2023-06-04T03:23:05;10.30;99.90
13686;DHT22;6915;48.296;8.874;2023-06-04T03:25:35;10.30;99.90
13686;DHT22;6915;48.296;8.874;2023-06-04T03:28:04;10.30;99.90
13686;DHT22;6915;48.296;8.874;2023-06-04T03:30:32;10.30;99.90
13686;DHT22;6915;48.296;8.874;2023-06-04T03:33:01;10.30;99.90
13686;DHT22;6915;48.296;8.874;2023-06-04T03:35:30;10.30;99.90
13686;DHT22;6915;48.296;8.874;2023-06-04T03:37:58;10.20;99.90
13686;DHT22;6915;48.296;8.874;2023-06-04T03:40:27;10.10;99.90
13686;DHT22;6915;48.296;8.874;2023-06-04T03:42:57;10.20;99.90
13686;DHT22;6915;48.296;8.874;2023-06-04T03:45:25;10.20;99.90
13686;DHT22;6915;48.296;8.874;2023-06-04T03:47:54;10.30;99.90
13686;DHT22;6915;48.296;8.874;2023-06-04T03:50:23;10.30;99.90
13686;DHT22;6915;48.296;8.874;2023-06-04T03:52:52;10.40;99.90
13686;DHT22;6915;48.296;8.874;2023-06-04T03:55:21;10.40;99.90
13686;DHT22;6915;48.296;8.874;2023-06-04T03:57:50;10.40;99.90
13686;DHT22;6915;48.296;8.874;2023-06-04T04:00:20;10.60;99.90
13686;DHT22;6915;48.296;8.874;2023-06-04T04:02:50;10.80;99.90
13686;DHT22;6915;48.296;8.874;2023-06-04T04:05:18;11.30;99.90
13686;DHT22;6915;48.296;8.874;2023-06-04T04:07:49;11.80;99.90
13686;DHT22;6915;48.296;8.874;2023-06-04T04:10:17;12.30;99.90
13686;DHT22;6915;48.296;8.874;2023-06-04T04:12:46;12.70;99.90
13686;DHT22;6915;48.296;8.874;2023-06-04T04:15:15;13.00;99.90
13686;DHT22;6915;48.296;8.874;2023-06-04T04:17:45;13.30;99.90
13686;DHT22;6915;48.296;8.874;2023-06-04T04:20:13;13.80;99.90
13686;DHT22;6915;48.296;8.874;2023-06-04T04:22:45;14.10;99.90
13686;DHT22;6915;48.296;8.874;2023-06-04T04:25:13;14.40;99.90
13686;DHT22;6915;48.296;8.874;2023-06-04T04:27:42;14.70;99.90
13686;DHT22;6915;48.296;8.874;2023-06-04T04:30:13;15.00;99.90
13686;DHT22;6915;48.296;8.874;2023-06-04T04:32:46;15.40;99.90
13686;DHT22;6915;48.296;8.874;2023-06-04T04:35:16;15.50;99.90
13686;DHT22;6915;48.296;8.874;2023-06-04T04:37:45;15.60;99.90
13686;DHT22;6915;48.296;8.874;2023-06-04T04:40:14;15.70;99.90
13686;DHT22;6915;48.296;8.874;2023-06-04T04:42:43;16.20;99.90
13686;DHT22;6915;48.296;8.874;2023-06-04T04:45:12;16.20;99.90
13686;DHT22;6915;48.296;8.874;2023-06-04T04:47:41;16.50;99.90
13686;DHT22;6915;48.296;8.874;2023-06-04T04:50:11;16.90;99.90
13686;DHT22;6915;48.296;8.874;2023-06-04T04:52:39;17.10;99.90
13686;DHT22;6915;48.296;8.874;2023-06-04T04:55:09;17.20;99.90
13686;DHT22;6915;48.296;8.874;2023-06-04T04:57:40;17.60;99.90
13686;DHT22;6915;48.296;8.874;2023-06-04T05:00:10;17.60;99.90
13686;DHT22;6915;48.296;8.874;2023-06-04T05:02:39;18.10;99.90
13686;DHT22;6915;48.296;8.874;2023-06-04T05:05:09;18.40;99.90
13686;DHT22;6915;48.296;8.874;2023-06-04T05:07:39;18.30;99.90
13686;DHT22;6915;48.296;8.874;2023-06-04T05:10:09;18.30;99.90
13686;DHT22;6915;48.296;8.874;2023-06-04T05:12:37;18.50;99.90
13686;DHT22;6915;48.296;8.874;2023-06-04T05:15:08;18.70;99.90
13686;DHT22;6915;48.296;8.874;2023-06-04T05:17:38;18.30;99.90
13686;DHT22;6915;48.296;8.874;2023-06-04T05:20:08;18.40;99.90
13686;DHT22;6915;48.296;8.874;2023-06-04T05:22:40;18.40;99.90
13686;DHT22;6915;48.296;8.874;2023-06-04T05:25:10;18.50;99.90
13686;DHT22;6915;48.296;8.874;2023-06-04T05:27:39;18.70;99.90
13686;DHT22;6915;48.296;8.874;2023-06-04T05:30:11;18.80;99.90
13686;DHT22;6915;48.296;8.874;2023-06-04T05:32:40;18.90;99.90
13686;DHT22;6915;48.296;8.874;2023-06-04T05:35:10;18.90;99.90
13686;DHT22;6915;48.296;8.874;2023-06-04T05:37:41;19.00;99.90
13686;DHT22;6915;48.296;8.874;2023-06-04T05:40:10;18.80;99.90
13686;DHT22;6915;48.296;8.874;2023-06-04T05:42:40;18.90;99.90
13686;DHT22;6915;48.296;8.874;2023-06-04T05:45:10;18.90;99.90
13686;DHT22;6915;48.296;8.874;2023-06-04T05:47:39;19.00;99.90
13686;DHT22;6915;48.296;8.874;2023-06-04T05:50:09;18.90;99.90
13686;DHT22;6915;48.296;8.874;2023-06-04T05:52:38;18.70;99.90
13686;DHT22;6915;48.296;8.874;2023-06-04T05:55:10;18.60;99.90
13686;DHT22;6915;48.296;8.874;2023-06-04T05:57:38;18.70;99.90
13686;DHT22;6915;48.296;8.874;2023-06-04T06:00:09;18.50;99.90
13686;DHT22;6915;48.296;8.874;2023-06-04T06:02:38;18.40;99.90
13686;DHT22;6915;48.296;8.874;2023-06-04T06:05:09;18.40;99.90
13686;DHT22;6915;48.296;8.874;2023-06-04T06:07:38;18.40;99.90
13686;DHT22;6915;48.296;8.874;2023-06-04T06:10:11;18.30;99.90
13686;DHT22;6915;48.296;8.874;2023-06-04T06:12:41;18.50;99.90
13686;DHT22;6915;48.296;8.874;2023-06-04T06:15:09;18.70;99.90
13686;DHT22;6915;48.296;8.874;2023-06-04T06:17:38;18.80;99.90
13686;DHT22;6915;48.296;8.874;2023-06-04T06:20:09;18.60;99.90
13686;DHT22;6915;48.296;8.874;2023-06-04T06:22:38;18.70;99.90
13686;DHT22;6915;48.296;8.874;2023-06-04T06:25:07;18.60;99.90
13686;DHT22;6915;48.296;8.874;2023-06-04T06:27:36;18.50;99.90
13686;DHT22;6915;48.296;8.874;2023-06-04T06:30:06;18.30;99.90
13686;DHT22;6915;48.296;8.874;2023-06-04T06:32:35;18.60;99.90
13686;DHT22;6915;48.296;8.874;2023-06-04T06:35:05;18.80;99.90
13686;DHT22;6915;48.296;8.874;2023-06-04T06:37:35;18.30;99.90
13686;DHT22;6915;48.296;8.874;2023-06-04T06:40:12;18.10;99.90
13686;DHT22;6915;48.296;8.874;2023-06-04T06:42:40;18.30;99.90
13686;DHT22;6915;48.296;8.874;2023-06-04T06:45:08;18.50;99.90
13686;DHT22;6915;48.296;8.874;2023-06-04T06:47:37;18.20;99.90
13686;DHT22;6915;48.296;8.874;2023-06-04T06:50:07;17.90;99.90
13686;DHT22;6915;48.296;8.874;2023-06-04T06:52:36;17.90;99.90
13686;DHT22;6915;48.296;8.874;2023-06-04T06:55:05;18.30;99.90
13686;DHT22;6915;48.296;8.874;2023-06-04T06:57:36;18.50;99.90
13686;DHT22;6915;48.296;8.874;2023-06-04T07:00:06;18.70;99.90
13686;DHT22;6915;48.296;8.874;2023-06-04T07:02:35;18.80;99.90
13686;DHT22;6915;48.296;8.874;2023-06-04T07:05:04;18.50;99.90
13686;DHT22;6915;48.296;8.874;2023-06-04T07:07:33;18.60;99.90
13686;DHT22;6915;48.296;8.874;2023-06-04T07:10:02;18.50;99.90
13686;DHT22;6915;48.296;8.874;2023-06-04T07:12:32;18.30;99.90
13686;DHT22;6915;48.296;8.874;2023-06-04T07:15:02;18.20;99.90
13686;DHT22;6915;48.296;8.874;2023-06-04T07:17:31;18.50;99.90
13686;DHT22;6915;48.296;8.874;2023-06-04T07:20:00;18.70;99.90
13686;DHT22;6915;48.296;8.874;2023-06-04T07:22:28;19.00;99.90
13686;DHT22;6915;48.296;8.874;2023-06-04T07:24:57;18.90;99.90
13686;DHT22;6915;48.296;8.874;2023-06-04T07:27:26;18.80;99.90
13686;DHT22;6915;48.296;8.874;2023-06-04T07:29:55;18.80;99.90
13686;DHT22;6915;48.296;8.874;2023-06-04T07:32:25;18.90;99.90
13686;DHT22;6915;48.296;8.874;2023-06-04T07:34:54;19.20;99.90
13686;DHT22;6915;48.296;8.874;2023-06-04T07:37:23;19.20;99.90
13686;DHT22;6915;48.296;8.874;2023-06-04T07:39:52;19.10;99.90
13686;DHT22;6915;48.296;8.874;2023-06-04T07:42:20;19.10;99.90
13686;DHT22;6915;48.296;8.874;2023-06-04T07:44:49;19.30;99.90
13686;DHT22;6915;48.296;8.874;2023-06-04T07:47:17;19.80;99.90
13686;DHT22;6915;48.296;8.874;2023-06-04T07:49:47;19.80;99.90
13686;DHT22;6915;48.296;8.874;2023-06-04T07:52:16;19.90;99.90
13686;DHT22;6915;48.296;8.874;2023-06-04T07:54:45;19.90;99.90
13686;DHT22;6915;48.296;8.874;2023-06-04T07:57:14;19.90;99.90
13686;DHT22;6915;48.296;8.874;2023-06-04T07:59:42;19.80;99.90
13686;DHT22;6915;48.296;8.874;2023-06-04T08:02:11;19.90;99.90
13686;DHT22;6915;48.296;8.874;2023-06-04T08:04:41;20.00;99.90
13686;DHT22;6915;48.296;8.874;2023-06-04T08:07:11;19.90;99.90
13686;DHT22;6915;48.296;8.874;2023-06-04T08:09:40;20.30;99.90
13686;DHT22;6915;48.296;8.874;2023-06-04T08:12:11;20.20;99.90
13686;DHT22;6915;48.296;8.874;2023-06-04T08:14:41;20.20;99.90
13686;DHT22;6915;48.296;8.874;2023-06-04T08:17:13;20.40;99.90
13686;DHT22;6915;48.296;8.874;2023-06-04T08:19:42;20.40;99.90
13686;DHT22;6915;48.296;8.874;2023-06-04T08:22:12;20.40;99.90
13686;DHT22;6915;48.296;8.874;2023-06-04T08:24:43;20.80;99.90
13686;DHT22;6915;48.296;8.874;2023-06-04T08:27:14;20.90;99.90
13686;DHT22;6915;48.296;8.874;2023-06-04T08:29:44;21.10;99.90
13686;DHT22;6915;48.296;8.874;2023-06-04T08:32:15;21.30;99.90
13686;DHT22;6915;48.296;8.874;2023-06-04T08:34:44;21.10;99.90
13686;DHT22;6915;48.296;8.874;2023-06-04T08:37:14;21.20;99.90
13686;DHT22;6915;48.296;8.874;2023-06-04T08:39:43;21.10;99.90
13686;DHT22;6915;48.296;8.874;2023-06-04T08:42:15;21.50;99.90
13686;DHT22;6915;48.296;8.874;2023-06-04T08:44:47;21.80;99.90
13686;DHT22;6915;48.296;8.874;2023-06-04T08:47:20;21.80;99.90
13686;DHT22;6915;48.296;8.874;2023-06-04T08:49:51;22.00;99.90
13686;DHT22;6915;48.296;8.874;2023-06-04T08:52:22;21.90;99.90
13686;DHT22;6915;48.296;8.874;2023-06-04T08:54:54;21.70;99.90
13686;DHT22;6915;48.296;8.874;2023-06-04T08:57:24;21.70;99.90
13686;DHT22;6915;48.296;8.874;2023-06-04T08:59:53;21.80;99.90
13686;DHT22;6915;48.296;8.874;2023-06-04T09:02:22;22.20;99.90
13686;DHT22;6915;48.296;8.874;2023-06-04T09:04:51;22.00;99.90
13686;DHT22;6915;48.296;8.874;2023-06-04T09:07:22;22.20;99.90
13686;DHT22;6915;48.296;8.874;2023-06-04T09:09:52;22.30;99.90
13686;DHT22;6915;48.296;8.874;2023-06-04T09:12:24;22.50;99.90
13686;DHT22;6915;48.296;8.874;2023-06-04T09:14:54;22.60;99.90
13686;DHT22;6915;48.296;8.874;2023-06-04T09:17:23;22.50;99.90
13686;DHT22;6915;48.296;8.874;2023-06-04T09:19:52;22.50;99.90
13686;DHT22;6915;48.296;8.874;2023-06-04T09:22:32;22.60;99.90
13686;DHT22;6915;48.296;8.874;2023-06-04T09:25:01;22.50;99.90
13686;DHT22;6915;48.296;8.874;2023-06-04T09:27:39;22.50;99.90
13686;DHT22;6915;48.296;8.874;2023-06-04T09:30:09;22.70;99.90
13686;DHT22;6915;48.296;8.874;2023-06-04T09:32:38;22.90;99.90
13686;DHT22;6915;48.296;8.874;2023-06-04T09:35:11;22.90;99.90
13686;DHT22;6915;48.296;8.874;2023-06-04T09:37:42;22.70;99.90
13686;DHT22;6915;48.296;8.874;2023-06-04T09:40:12;22.60;99.90
13686;DHT22;6915;48.296;8.874;2023-06-04T09:42:44;22.70;99.90
13686;DHT22;6915;48.296;8.874;2023-06-04T09:45:26;22.90;99.90
13686;DHT22;6915;48.296;8.874;2023-06-04T09:47:56;23.10;99.90
13686;DHT22;6915;48.296;8.874;2023-06-04T09:50:29;23.40;99.90
13686;DHT22;6915;48.296;8.874;2023-06-04T09:52:59;23.30;99.90
13686;DHT22;6915;48.296;8.874;2023-06-04T09:55:31;22.80;99.90
13686;DHT22;6915;48.296;8.874;2023-06-04T09:58:02;22.90;99.90
13686;DHT22;6915;48.296;8.874;2023-06-04T10:00:32;22.60;99.90
13686;DHT22;6915;48.296;8.874;2023-06-04T10:03:05;22.90;99.90
13686;DHT22;6915;48.296;8.874;2023-06-04T10:05:37;23.10;99.90
13686;DHT22;6915;48.296;8.874;2023-06-04T10:08:11;23.20;99.90
13686;DHT22;6915;48.296;8.874;2023-06-04T10:10:41;23.30;99.90
13686;DHT22;6915;48.296;8.874;2023-06-04T10:13:14;23.20;99.90
13686;DHT22;6915;48.296;8.874;2023-06-04T10:15:45;23.00;99.90
13686;DHT22;6915;48.296;8.874;2023-06-04T10:18:16;23.30;99.90
13686;DHT22;6915;48.296;8.874;2023-06-04T10:20:45;23.50;99.90
13686;DHT22;6915;48.296;8.874;2023-06-04T10:23:16;23.50;99.90
13686;DHT22;6915;48.296;8.874;2023-06-04T10:25:50;23.50;99.90
13686;DHT22;6915;48.296;8.874;2023-06-04T10:28:22;23.60;99.90
13686;DHT22;6915;48.296;8.874;2023-06-04T10:30:53;23.50;99.90
13686;DHT22;6915;48.296;8.874;2023-06-04T10:33:22;23.60;99.90
13686;DHT22;6915;48.296;8.874;2023-06-04T10:36:10;23.50;99.90
13686;DHT22;6915;48.296;8.874;2023-06-04T10:38:48;23.40;99.90
13686;DHT22;6915;48.296;8.874;2023-06-04T10:41:19;23.50;99.90
13686;DHT22;6915;48.296;8.874;2023-06-04T10:43:49;23.70;99.90
13686;DHT22;6915;48.296;8.874;2023-06-04T10:46:19;24.00;99.90
13686;DHT22;6915;48.296;8.874;2023-06-04T10:48:51;23.90;99.90
13686;DHT22;6915;48.296;8.874;2023-06-04T10:51:32;23.50;99.90
13686;DHT22;6915;48.296;8.874;2023-06-04T10:54:03;23.70;99.90
13686;DHT22;6915;48.296;8.874;2023-06-04T10:56:33;23.80;99.90
13686;DHT22;6915;48.296;8.874;2023-06-04T10:59:12;23.90;99.90
13686;DHT22;6915;48.296;8.874;2023-06-04T11:01:41;24.10;99.90
13686;DHT22;6915;48.296;8.874;2023-06-04T11:04:18;23.80;99.90
13686;DHT22;6915;48.296;8.874;2023-06-04T11:06:47;23.80;99.90
13686;DHT22;6915;48.296;8.874;2023-06-04T11:09:18;23.70;99.90
13686;DHT22;6915;48.296;8.874;2023-06-04T11:11:56;23.80;99.90
13686;DHT22;6915;48.296;8.874;2023-06-04T11:14:25;24.00;99.90
13686;DHT22;6915;48.296;8.874;2023-06-04T11:16:54;23.90;99.90
13686;DHT22;6915;48.296;8.874;2023-06-04T11:19:23;24.00;99.90
13686;DHT22;6915;48.296;8.874;2023-06-04T11:21:51;24.10;99.90
13686;DHT22;6915;48.296;8.874;2023-06-04T11:24:23;24.10;99.90
13686;DHT22;6915;48.296;8.874;2023-06-04T11:26:51;24.40;99.90
13686;DHT22;6915;48.296;8.874;2023-06-04T11:29:20;24.60;99.90
13686;DHT22;6915;48.296;8.874;2023-06-04T11:31:49;24.40;99.90
13686;DHT22;6915;48.296;8.874;2023-06-04T11:34:24;24.60;99.90
13686;DHT22;6915;48.296;8.874;2023-06-04T11:36:54;24.70;99.90
13686;DHT22;6915;48.296;8.874;2023-06-04T11:39:33;25.00;99.90
13686;DHT22;6915;48.296;8.874;2023-06-04T11:42:04;25.20;99.90
13686;DHT22;6915;48.296;8.874;2023-06-04T11:44:36;24.90;99.90
13686;DHT22;6915;48.296;8.874;2023-06-04T11:47:07;24.70;99.90
13686;DHT22;6915;48.296;8.874;2023-06-04T11:49:36;25.10;99.90
13686;DHT22;6915;48.296;8.874;2023-06-04T11:52:06;25.20;99.90
13686;DHT22;6915;48.296;8.874;2023-06-04T11:54:37;24.90;99.90
13686;DHT22;6915;48.296;8.874;2023-06-04T11:57:09;25.30;99.90
13686;DHT22;6915;48.296;8.874;2023-06-04T11:59:38;25.60;99.90
13686;DHT22;6915;48.296;8.874;2023-06-04T12:02:09;25.60;99.90
13686;DHT22;6915;48.296;8.874;2023-06-04T12:04:40;25.70;99.90
13686;DHT22;6915;48.296;8.874;2023-06-04T12:07:10;25.40;99.90
13686;DHT22;6915;48.296;8.874;2023-06-04T12:09:40;24.90;99.90
13686;DHT22;6915;48.296;8.874;2023-06-04T12:12:11;24.80;99.90
13686;DHT22;6915;48.296;8.874;2023-06-04T12:14:41;24.80;99.90
13686;DHT22;6915;48.296;8.874;2023-06-04T12:17:13;24.90;99.90
13686;DHT22;6915;48.296;8.874;2023-06-04T12:19:51;24.80;99.90
13686;DHT22;6915;48.296;8.874;2023-06-04T12:22:21;25.00;99.90
13686;DHT22;6915;48.296;8.874;2023-06-04T12:24:53;25.40;99.90
13686;DHT22;6915;48.296;8.874;2023-06-04T12:27:26;25.40;99.90
13686;DHT22;6915;48.296;8.874;2023-06-04T12:30:02;26.00;99.90
13686;DHT22;6915;48.296;8.874;2023-06-04T12:32:34;26.00;99.90
13686;DHT22;6915;48.296;8.874;2023-06-04T12:35:03;25.60;99.90
13686;DHT22;6915;48.296;8.874;2023-06-04T12:37:32;24.70;99.90
13686;DHT22;6915;48.296;8.874;2023-06-04T12:40:06;24.20;99.90
13686;DHT22;6915;48.296;8.874;2023-06-04T12:42:36;23.50;99.90
13686;DHT22;6915;48.296;8.874;2023-06-04T12:45:04;23.10;99.90
13686;DHT22;6915;48.296;8.874;2023-06-04T12:47:33;23.20;99.90
13686;DHT22;6915;48.296;8.874;2023-06-04T12:50:01;23.80;99.90
13686;DHT22;6915;48.296;8.874;2023-06-04T12:52:30;24.10;99.90
13686;DHT22;6915;48.296;8.874;2023-06-04T12:54:59;24.70;99.90
13686;DHT22;6915;48.296;8.874;2023-06-04T12:57:29;24.90;99.90
13686;DHT22;6915;48.296;8.874;2023-06-04T12:59:58;24.70;99.90
13686;DHT22;6915;48.296;8.874;2023-06-04T13:02:27;25.00;99.90
13686;DHT22;6915;48.296;8.874;2023-06-04T13:04:56;25.00;99.90
13686;DHT22;6915;48.296;8.874;2023-06-04T13:07:25;24.60;99.90
13686;DHT22;6915;48.296;8.874;2023-06-04T13:09:55;24.60;99.90
13686;DHT22;6915;48.296;8.874;2023-06-04T13:12:24;24.80;99.90
13686;DHT22;6915;48.296;8.874;2023-06-04T13:14:55;24.90;99.90
13686;DHT22;6915;48.296;8.874;2023-06-04T13:17:24;24.80;99.90
13686;DHT22;6915;48.296;8.874;2023-06-04T13:19:53;24.80;99.90
13686;DHT22;6915;48.296;8.874;2023-06-04T13:22:22;24.90;99.90
13686;DHT22;6915;48.296;8.874;2023-06-04T13:24:51;25.10;99.90
13686;DHT22;6915;48.296;8.874;2023-06-04T13:27:19;25.20;99.90
13686;DHT22;6915;48.296;8.874;2023-06-04T13:29:48;24.60;99.90
13686;DHT22;6915;48.296;8.874;2023-06-04T13:32:19;24.40;99.90
13686;DHT22;6915;48.296;8.874;2023-06-04T13:34:47;24.50;99.90
13686;DHT22;6915;48.296;8.874;2023-06-04T13:37:16;24.80;99.90
13686;DHT22;6915;48.296;8.874;2023-06-04T13:39:45;24.90;99.90
13686;DHT22;6915;48.296;8.874;2023-06-04T13:42:14;24.70;99.90
13686;DHT22;6915;48.296;8.874;2023-06-04T13:44:42;24.20;99.90
13686;DHT22;6915;48.296;8.874;2023-06-04T13:47:12;24.00;99.90
13686;DHT22;6915;48.296;8.874;2023-06-04T13:49:45;24.00;99.90
13686;DHT22;6915;48.296;8.874;2023-06-04T13:52:14;24.00;99.90
13686;DHT22;6915;48.296;8.874;2023-06-04T13:54:42;24.10;99.90
13686;DHT22;6915;48.296;8.874;2023-06-04T13:57:13;24.40;99.90
13686;DHT22;6915;48.296;8.874;2023-06-04T13:59:43;24.50;99.90
13686;DHT22;6915;48.296;8.874;2023-06-04T14:02:12;24.30;99.90
13686;DHT22;6915;48.296;8.874;2023-06-04T14:04:47;24.30;99.90
13686;DHT22;6915;48.296;8.874;2023-06-04T14:07:29;24.00;99.90
13686;DHT22;6915;48.296;8.874;2023-06-04T14:10:11;23.50;99.90
13686;DHT22;6915;48.296;8.874;2023-06-04T14:12:41;23.40;99.90
13686;DHT22;6915;48.296;8.874;2023-06-04T14:15:12;23.30;99.90
13686;DHT22;6915;48.296;8.874;2023-06-04T14:17:42;23.00;99.90
13686;DHT22;6915;48.296;8.874;2023-06-04T14:20:14;23.10;99.90
13686;DHT22;6915;48.296;8.874;2023-06-04T14:22:47;23.10;99.90
13686;DHT22;6915;48.296;8.874;2023-06-04T14:25:17;23.00;99.90
13686;DHT22;6915;48.296;8.874;2023-06-04T14:27:47;22.90;99.90
13686;DHT22;6915;48.296;8.874;2023-06-04T14:30:16;23.00;99.90
13686;DHT22;6915;48.296;8.874;2023-06-04T14:32:47;23.00;99.90
13686;DHT22;6915;48.296;8.874;2023-06-04T14:35:27;23.00;99.90
13686;DHT22;6915;48.296;8.874;2023-06-04T14:48:15;22.60;99.90
13686;DHT22;6915;48.296;8.874;2023-06-04T14:50:46;22.70;99.90
13686;DHT22;6915;48.296;8.874;2023-06-04T14:53:16;22.70;99.90
13686;DHT22;6915;48.296;8.874;2023-06-04T14:55:45;22.70;99.90
13686;DHT22;6915;48.296;8.874;2023-06-04T14:58:20;22.50;99.90
13686;DHT22;6915;48.296;8.874;2023-06-04T15:06:45;22.50;99.90
13686;DHT22;6915;48.296;8.874;2023-06-04T15:09:15;22.40;99.90
13686;DHT22;6915;48.296;8.874;2023-06-04T15:11:44;22.50;99.90
13686;DHT22;6915;48.296;8.874;2023-06-04T15:14:13;22.50;99.90
13686;DHT22;6915;48.296;8.874;2023-06-04T15:16:42;22.60;99.90
13686;DHT22;6915;48.296;8.874;2023-06-04T15:19:11;22.60;99.90
13686;DHT22;6915;48.296;8.874;2023-06-04T15:21:40;22.60;99.90
13686;DHT22;6915;48.296;8.874;2023-06-04T15:24:13;22.40;99.90
13686;DHT22;6915;48.296;8.874;2023-06-04T15:26:44;22.50;99.90
13686;DHT22;6915;48.296;8.874;2023-06-04T15:29:13;22.60;99.90
13686;DHT22;6915;48.296;8.874;2023-06-04T15:31:42;22.70;99.90
13686;DHT22;6915;48.296;8.874;2023-06-04T15:34:11;22.60;99.90
13686;DHT22;6915;48.296;8.874;2023-06-04T15:36:41;22.60;99.90
13686;DHT22;6915;48.296;8.874;2023-06-04T15:39:09;22.60;99.90
13686;DHT22;6915;48.296;8.874;2023-06-04T15:41:39;22.70;99.90
13686;DHT22;6915;48.296;8.874;2023-06-04T15:44:08;22.70;99.90
13686;DHT22;6915;48.296;8.874;2023-06-04T15:46:37;22.70;99.90
13686;DHT22;6915;48.296;8.874;2023-06-04T15:49:07;22.80;99.90
13686;DHT22;6915;48.296;8.874;2023-06-04T15:51:38;22.80;99.90
13686;DHT22;6915;48.296;8.874;2023-06-04T15:54:07;22.90;99.90
13686;DHT22;6915;48.296;8.874;2023-06-04T15:56:36;22.90;99.90
13686;DHT22;6915;48.296;8.874;2023-06-04T15:59:10;22.90;99.90
13686;DHT22;6915;48.296;8.874;2023-06-04T16:01:40;22.60;99.90
13686;DHT22;6915;48.296;8.874;2023-06-04T16:04:10;22.40;99.90
13686;DHT22;6915;48.296;8.874;2023-06-04T16:06:39;22.40;99.90
13686;DHT22;6915;48.296;8.874;2023-06-04T16:09:08;22.40;99.90
13686;DHT22;6915;48.296;8.874;2023-06-04T16:11:39;22.60;99.90
13686;DHT22;6915;48.296;8.874;2023-06-04T16:14:12;22.70;99.90
13686;DHT22;6915;48.296;8.874;2023-06-04T16:16:41;22.70;99.90
13686;DHT22;6915;48.296;8.874;2023-06-04T16:19:10;22.60;99.90